Time;durP1;ratioP1;P1;durP2;ratioP2;P2;SDS_P1;SDS_P2;PMS_P1;PMS_P2;Temp;Humidity;BMP_temperature;BMP_pressure;BME280_temperature;BME280_humidity;BME280_pressure;Samples;Min_cycle;Max_cycle;Signal;HPM_P1;HPM_P2
2023/09/28 00:02:48;;;;;;;21.23;14.65;;;13.60;99.90;;;;;;5072051;28;20094;-78
2023/09/28 00:05:15;;;;;;;18.30;13.25;;;13.50;99.90;;;;;;5081470;28;20020;-78
2023/09/28 00:07:41;;;;;;;19.15;13.93;;;13.50;99.90;;;;;;5077134;28;20058;-78
2023/09/28 00:10:11;;;;;;;20.20;15.23;;;13.30;99.90;;;;;;5086268;28;20031;-78
2023/09/28 00:12:39;;;;;;;18.42;14.57;;;13.30;99.90;;;;;;5059585;28;20013;-77
2023/09/28 00:15:05;;;;;;;20.42;15.43;;;13.30;99.90;;;;;;5084880;28;20051;-77
2023/09/28 00:17:33;;;;;;;17.77;14.82;;;13.30;99.90;;;;;;5074900;28;20370;-85
2023/09/28 00:19:58;;;;;;;23.58;14.80;;;13.20;99.90;;;;;;5090349;28;20018;-85
2023/09/28 00:22:24;;;;;;;19.77;14.48;;;13.20;99.90;;;;;;5072328;28;20036;-78
2023/09/28 00:24:50;;;;;;;21.77;15.85;;;13.20;99.90;;;;;;5069981;28;20066;-77
2023/09/28 00:27:16;;;;;;;24.50;15.40;;;13.20;99.90;;;;;;5071395;28;20020;-84
2023/09/28 00:29:41;;;;;;;20.17;15.35;;;13.30;99.90;;;;;;5072593;28;20020;-84
2023/09/28 00:32:07;;;;;;;21.98;16.40;;;13.30;99.90;;;;;;5071478;28;20476;-85
2023/09/28 00:34:33;;;;;;;21.02;16.52;;;13.30;99.90;;;;;;5071267;28;20489;-85
2023/09/28 00:36:59;;;;;;;24.20;15.85;;;13.30;99.90;;;;;;5078868;28;20020;-78
2023/09/28 00:39:26;;;;;;;24.45;16.20;;;13.40;99.90;;;;;;5090700;28;20044;-78
2023/09/28 00:41:52;;;;;;;21.58;14.82;;;13.40;99.90;;;;;;5092376;28;20073;-77
2023/09/28 00:44:17;;;;;;;21.83;15.00;;;13.40;99.90;;;;;;5091761;28;20024;-83
2023/09/28 00:46:43;;;;;;;23.40;16.30;;;13.50;99.90;;;;;;5092083;28;20016;-77
2023/09/28 00:49:12;;;;;;;19.67;14.82;;;13.50;99.90;;;;;;5083698;28;20111;-83
2023/09/28 00:51:39;;;;;;;21.15;14.18;;;13.60;99.90;;;;;;5076378;28;20021;-77
2023/09/28 00:54:11;;;;;;;18.65;15.43;;;13.50;99.90;;;;;;5077930;28;20055;-85
2023/09/28 00:56:37;;;;;;;25.33;14.65;;;13.50;99.90;;;;;;5072697;28;20474;-78
2023/09/28 00:59:03;;;;;;;27.25;15.90;;;13.60;99.90;;;;;;5079143;28;20028;-78
2023/09/28 01:01:29;;;;;;;24.48;16.40;;;13.60;99.90;;;;;;5085656;28;20016;-77
2023/09/28 01:03:56;;;;;;;19.65;15.13;;;13.60;99.90;;;;;;5072639;28;20078;-78
2023/09/28 01:06:24;;;;;;;20.80;15.60;;;13.60;99.90;;;;;;5075028;28;20422;-78
2023/09/28 01:08:52;;;;;;;24.05;16.27;;;13.60;99.90;;;;;;5079538;28;20016;-78
2023/09/28 01:11:20;;;;;;;21.98;16.30;;;13.70;99.90;;;;;;5068728;28;20386;-78
2023/09/28 01:13:46;;;;;;;24.00;16.08;;;13.70;99.90;;;;;;5083768;28;20034;-77
2023/09/28 01:16:13;;;;;;;20.95;14.50;;;13.60;99.90;;;;;;5081708;28;20059;-77
2023/09/28 01:18:39;;;;;;;19.15;14.23;;;13.60;99.90;;;;;;5084855;28;20024;-77
2023/09/28 01:21:06;;;;;;;23.70;14.65;;;13.60;99.90;;;;;;5081765;28;20025;-77
2023/09/28 01:23:32;;;;;;;22.30;14.63;;;13.60;99.90;;;;;;5078519;28;20056;-77
2023/09/28 01:25:58;;;;;;;20.00;14.98;;;13.60;99.90;;;;;;5082254;28;20028;-77
2023/09/28 01:28:24;;;;;;;18.65;14.15;;;13.60;99.90;;;;;;5074158;28;20013;-77
2023/09/28 01:30:50;;;;;;;23.30;15.05;;;13.50;99.90;;;;;;5085816;28;20031;-77
2023/09/28 01:33:16;;;;;;;21.77;14.48;;;13.50;99.90;;;;;;5080080;28;20169;-77
2023/09/28 01:35:42;;;;;;;20.40;14.45;;;13.50;99.90;;;;;;5095238;28;20473;-77
2023/09/28 01:38:10;;;;;;;19.42;13.80;;;13.40;99.90;;;;;;5092846;28;20501;-77
2023/09/28 01:40:40;;;;;;;20.35;14.15;;;13.30;99.90;;;;;;5095144;28;20085;-78
2023/09/28 01:43:06;;;;;;;20.95;15.25;;;13.30;99.90;;;;;;5092768;28;20035;-77
2023/09/28 01:45:32;;;;;;;21.52;13.32;;;13.20;99.90;;;;;;5080142;28;20385;-77
2023/09/28 01:47:57;;;;;;;20.60;13.82;;;13.20;99.90;;;;;;5091951;28;20027;-77
2023/09/28 01:50:23;;;;;;;18.55;13.75;;;13.10;99.90;;;;;;5094924;28;20020;-77
2023/09/28 01:52:49;;;;;;;19.83;13.50;;;13.00;99.90;;;;;;5093137;28;20020;-77
2023/09/28 01:55:14;;;;;;;20.95;13.95;;;12.90;99.90;;;;;;5083378;28;20428;-77
2023/09/28 01:57:40;;;;;;;19.25;13.23;;;12.90;99.90;;;;;;5073332;28;20008;-77
2023/09/28 02:00:18;;;;;;;17.73;13.43;;;12.90;99.90;;;;;;5070919;28;20013;-77
2023/09/28 02:02:44;;;;;;;22.77;15.13;;;12.90;99.90;;;;;;5073519;28;20033;-78
2023/09/28 02:05:13;;;;;;;18.58;13.27;;;12.80;99.90;;;;;;5085679;28;20048;-76
2023/09/28 02:07:39;;;;;;;19.08;14.30;;;12.70;99.90;;;;;;5094206;28;20028;-77
2023/09/28 02:10:06;;;;;;;17.85;13.27;;;12.70;99.90;;;;;;5093156;28;20020;-76
2023/09/28 02:12:32;;;;;;;18.63;12.80;;;12.70;99.90;;;;;;5093887;28;20024;-76
2023/09/28 02:15:01;;;;;;;20.33;14.10;;;12.60;99.90;;;;;;5094243;28;20059;-77
2023/09/28 02:17:28;;;;;;;19.45;13.35;;;12.60;99.90;;;;;;5092079;28;20012;-77
2023/09/28 02:19:54;;;;;;;16.58;13.45;;;12.50;99.90;;;;;;5080982;28;20103;-77
2023/09/28 02:22:20;;;;;;;16.35;13.15;;;12.50;99.90;;;;;;5093089;28;20110;-83
2023/09/28 02:24:46;;;;;;;22.35;14.18;;;12.40;99.90;;;;;;5084772;28;20031;-83
2023/09/28 02:27:13;;;;;;;18.00;13.32;;;12.40;99.90;;;;;;5098065;28;20087;-84
2023/09/28 02:29:38;;;;;;;19.52;12.93;;;12.30;99.90;;;;;;5098710;28;20051;-86
2023/09/28 02:32:04;;;;;;;21.30;13.52;;;12.30;99.90;;;;;;5097202;28;20149;-84
2023/09/28 02:34:33;;;;;;;23.73;14.80;;;12.30;99.90;;;;;;5098201;28;20386;-84
2023/09/28 02:37:00;;;;;;;20.95;15.23;;;12.20;99.90;;;;;;5094143;28;20026;-84
2023/09/28 02:39:28;;;;;;;20.58;14.20;;;12.20;99.90;;;;;;5091595;28;20111;-84
2023/09/28 02:41:54;;;;;;;21.50;14.93;;;12.10;99.90;;;;;;5092787;28;20401;-85
2023/09/28 02:44:20;;;;;;;22.67;14.98;;;12.10;99.90;;;;;;5082762;28;20013;-85
2023/09/28 02:46:45;;;;;;;24.25;15.32;;;12.10;99.90;;;;;;5092719;28;20085;-85
2023/09/28 02:49:11;;;;;;;20.73;14.75;;;12.00;99.90;;;;;;5092476;28;20016;-85
2023/09/28 02:51:37;;;;;;;19.85;15.32;;;12.00;99.90;;;;;;5085929;28;20424;-84
2023/09/28 02:54:03;;;;;;;20.63;14.43;;;12.00;99.90;;;;;;5085763;28;20050;-84
2023/09/28 02:56:28;;;;;;;24.30;17.27;;;12.00;99.90;;;;;;5073995;28;20031;-84
2023/09/28 02:58:54;;;;;;;24.35;16.38;;;12.00;99.90;;;;;;5073286;28;20020;-85
2023/09/28 03:01:23;;;;;;;26.83;19.25;;;11.90;99.90;;;;;;5079870;28;20069;-85
2023/09/28 03:03:50;;;;;;;24.80;18.60;;;11.90;99.90;;;;;;5091910;28;20024;-85
2023/09/28 03:06:15;;;;;;;32.08;18.30;;;12.00;99.90;;;;;;5084155;28;20036;-85
2023/09/28 03:08:41;;;;;;;29.05;18.88;;;11.90;99.90;;;;;;5072437;28;20474;-83
2023/09/28 03:11:06;;;;;;;28.10;20.20;;;12.00;99.90;;;;;;5073662;28;20529;-83
2023/09/28 03:13:32;;;;;;;30.30;20.42;;;12.00;99.90;;;;;;5086386;28;20065;-83
2023/09/28 03:15:58;;;;;;;28.67;21.05;;;12.00;99.90;;;;;;5091923;28;20020;-84
2023/09/28 03:18:23;;;;;;;32.92;20.98;;;12.00;99.90;;;;;;5090121;28;20020;-83
2023/09/28 03:20:49;;;;;;;35.28;21.85;;;12.00;99.90;;;;;;5081216;28;20024;-83
2023/09/28 03:23:15;;;;;;;34.92;22.58;;;12.00;99.90;;;;;;5077694;28;20043;-83
2023/09/28 03:25:42;;;;;;;34.22;22.20;;;12.00;99.90;;;;;;5070970;28;20028;-83
2023/09/28 03:28:08;;;;;;;33.17;22.02;;;12.00;99.90;;;;;;5072856;28;20490;-77
2023/09/28 03:30:33;;;;;;;25.98;18.55;;;12.00;99.90;;;;;;5072612;28;20020;-77
2023/09/28 03:32:59;;;;;;;27.20;18.83;;;12.00;99.90;;;;;;5072108;28;20523;-77
2023/09/28 03:35:26;;;;;;;28.58;19.08;;;11.90;99.90;;;;;;5073352;28;20066;-77
2023/09/28 03:37:54;;;;;;;27.00;20.48;;;11.90;99.90;;;;;;5071749;28;20025;-83
2023/09/28 03:40:20;;;;;;;32.63;22.77;;;11.90;99.90;;;;;;5064494;28;20082;-83
2023/09/28 03:42:50;;;;;;;35.72;22.48;;;11.90;99.90;;;;;;5072746;28;20029;-77
2023/09/28 03:45:20;;;;;;;38.60;25.25;;;12.00;99.90;;;;;;5073763;28;20027;-83
2023/09/28 03:47:48;;;;;;;37.38;25.42;;;12.00;99.90;;;;;;5072936;28;20070;-83
2023/09/28 03:50:14;;;;;;;38.08;23.83;;;12.00;99.90;;;;;;5072326;28;20111;-83
2023/09/28 03:52:41;;;;;;;33.70;23.15;;;12.00;99.90;;;;;;5073812;28;20096;-84
2023/09/28 03:55:12;;;;;;;38.08;25.13;;;12.00;99.90;;;;;;5073232;28;20028;-77
2023/09/28 03:57:39;;;;;;;34.03;23.90;;;12.00;99.90;;;;;;5073758;28;20016;-83
2023/09/28 04:00:12;;;;;;;36.00;23.58;;;12.00;99.90;;;;;;5082080;28;20016;-83
2023/09/28 04:02:41;;;;;;;29.67;21.60;;;12.00;99.90;;;;;;5090812;28;20031;-77
2023/09/28 04:05:08;;;;;;;29.70;20.08;;;12.00;99.90;;;;;;5092825;28;20040;-83
2023/09/28 04:07:33;;;;;;;27.73;20.92;;;11.90;99.90;;;;;;5074669;28;20024;-76
2023/09/28 04:09:59;;;;;;;27.17;18.80;;;11.80;99.90;;;;;;5071466;28;20016;-77
2023/09/28 04:12:25;;;;;;;25.92;16.83;;;11.80;99.90;;;;;;5066944;28;20025;-77
2023/09/28 04:14:51;;;;;;;23.58;17.35;;;11.80;99.90;;;;;;5088950;28;20024;-78
2023/09/28 04:17:17;;;;;;;28.02;18.75;;;11.70;99.90;;;;;;5076658;28;20391;-77
2023/09/28 04:19:43;;;;;;;22.20;15.77;;;11.60;99.90;;;;;;5079832;28;20034;-77
2023/09/28 04:22:09;;;;;;;29.17;20.83;;;11.60;99.90;;;;;;5077246;28;20028;-76
2023/09/28 04:24:34;;;;;;;37.90;24.40;;;11.60;99.90;;;;;;5082787;28;20103;-76
2023/09/28 04:27:00;;;;;;;36.80;24.10;;;11.70;99.90;;;;;;5079628;28;20024;-76
2023/09/28 04:29:26;;;;;;;30.52;20.38;;;11.60;99.90;;;;;;5081957;28;20024;-76
2023/09/28 04:31:52;;;;;;;25.13;17.88;;;11.50;99.90;;;;;;5072935;28;20016;-77
2023/09/28 04:34:18;;;;;;;24.08;17.42;;;11.50;99.90;;;;;;5081952;28;20432;-76
2023/09/28 04:36:45;;;;;;;20.50;14.27;;;11.40;99.90;;;;;;5077928;28;20056;-77
2023/09/28 04:39:11;;;;;;;20.90;14.70;;;11.40;99.90;;;;;;5081893;28;20047;-77
2023/09/28 04:41:39;;;;;;;21.23;13.68;;;11.30;99.90;;;;;;5078953;28;20021;-77
2023/09/28 04:44:06;;;;;;;27.30;18.25;;;11.30;99.90;;;;;;5074432;28;20119;-77
2023/09/28 04:46:32;;;;;;;26.00;17.13;;;11.30;99.90;;;;;;5072994;28;20023;-76
2023/09/28 04:48:59;;;;;;;34.13;19.65;;;11.30;99.90;;;;;;5073161;28;20121;-77
2023/09/28 04:51:24;;;;;;;27.20;18.45;;;11.30;99.90;;;;;;5085254;28;20045;-77
2023/09/28 04:53:50;;;;;;;40.28;18.77;;;11.20;99.90;;;;;;5072037;28;20055;-77
2023/09/28 04:56:16;;;;;;;25.67;19.27;;;11.20;99.90;;;;;;5071227;28;20031;-77
2023/09/28 04:58:41;;;;;;;24.75;17.25;;;11.20;99.90;;;;;;5072009;28;20020;-77
2023/09/28 05:01:07;;;;;;;27.63;18.10;;;11.20;99.90;;;;;;5072052;28;20024;-77
2023/09/28 05:03:33;;;;;;;27.63;16.75;;;11.20;99.90;;;;;;5074188;28;20036;-77
2023/09/28 05:05:59;;;;;;;23.05;17.48;;;11.20;99.90;;;;;;5076235;28;20029;-77
2023/09/28 05:08:25;;;;;;;28.30;17.55;;;11.20;99.90;;;;;;5068273;28;20031;-76
2023/09/28 05:10:52;;;;;;;28.38;15.80;;;11.20;99.90;;;;;;5073852;28;20036;-77
2023/09/28 05:13:19;;;;;;;26.52;17.48;;;11.20;99.90;;;;;;5074788;28;20033;-78
2023/09/28 05:15:45;;;;;;;27.95;16.90;;;11.20;99.90;;;;;;5070773;28;20016;-78
2023/09/28 05:18:11;;;;;;;25.45;17.85;;;11.20;99.90;;;;;;5074900;28;20033;-81
2023/09/28 05:20:36;;;;;;;28.65;17.80;;;11.20;99.90;;;;;;5076033;28;20365;-80
2023/09/28 05:23:03;;;;;;;27.67;17.70;;;11.30;99.90;;;;;;5073109;28;20028;-79
2023/09/28 05:25:30;;;;;;;23.55;17.02;;;11.40;99.90;;;;;;5074931;28;20016;-80
2023/09/28 05:27:55;;;;;;;30.92;19.98;;;11.40;99.90;;;;;;5073204;28;20032;-79
2023/09/28 05:30:21;;;;;;;29.67;20.33;;;11.50;99.90;;;;;;5073911;28;20036;-79
2023/09/28 05:32:46;;;;;;;32.15;21.27;;;11.60;99.90;;;;;;5074807;28;20090;-79
2023/09/28 05:35:12;;;;;;;36.33;21.45;;;11.70;99.90;;;;;;5073499;28;20024;-80
2023/09/28 05:37:38;;;;;;;27.27;20.08;;;11.80;99.90;;;;;;5073224;28;20032;-79
2023/09/28 05:40:04;;;;;;;25.77;18.42;;;11.90;99.90;;;;;;5087308;28;20111;-79
2023/09/28 05:42:34;;;;;;;23.48;18.48;;;12.00;99.90;;;;;;5090363;28;20476;-79
2023/09/28 05:45:00;;;;;;;19.02;16.00;;;12.00;99.90;;;;;;5087190;28;20012;-79
2023/09/28 05:47:26;;;;;;;25.45;19.50;;;12.10;99.90;;;;;;5090864;28;20370;-78
2023/09/28 05:49:52;;;;;;;23.00;17.60;;;12.20;99.90;;;;;;5083051;28;20030;-78
2023/09/28 05:52:18;;;;;;;22.85;18.02;;;12.40;99.90;;;;;;5088752;28;20036;-78
2023/09/28 05:54:45;;;;;;;25.05;19.10;;;12.60;99.90;;;;;;5088501;28;20103;-79
2023/09/28 05:57:12;;;;;;;27.40;18.67;;;12.70;99.90;;;;;;5078953;28;20799;-77
2023/09/28 05:59:38;;;;;;;25.13;18.85;;;12.90;99.90;;;;;;5072984;28;20470;-79
2023/09/28 06:02:04;;;;;;;24.23;16.83;;;13.10;99.90;;;;;;5081255;28;20032;-79
2023/09/28 06:04:30;;;;;;;23.90;17.55;;;13.30;99.90;;;;;;5084607;28;20021;-79
2023/09/28 06:06:56;;;;;;;25.75;18.83;;;13.50;99.90;;;;;;5085985;28;20428;-79
2023/09/28 06:09:22;;;;;;;26.38;16.38;;;13.60;99.90;;;;;;5077892;28;20029;-79
2023/09/28 06:11:48;;;;;;;17.25;13.30;;;13.80;99.90;;;;;;5074805;28;20046;-79
2023/09/28 06:14:15;;;;;;;19.85;13.45;;;14.00;99.90;;;;;;5080894;28;20052;-79
2023/09/28 06:16:42;;;;;;;23.98;14.48;;;14.10;99.90;;;;;;5079192;28;20028;-79
2023/09/28 06:19:09;;;;;;;19.35;13.80;;;14.30;99.90;;;;;;5082731;28;20036;-79
2023/09/28 06:21:35;;;;;;;21.13;15.90;;;14.60;99.90;;;;;;5087044;28;20549;-79
2023/09/28 06:24:01;;;;;;;18.08;14.13;;;14.70;99.90;;;;;;5083738;28;20093;-79
2023/09/28 06:26:27;;;;;;;18.88;14.27;;;15.00;99.90;;;;;;5079822;28;20024;-79
2023/09/28 06:28:53;;;;;;;20.55;15.38;;;15.20;99.90;;;;;;5076317;28;20500;-79
2023/09/28 06:31:19;;;;;;;18.63;14.90;;;15.50;99.90;;;;;;5075058;28;20029;-79
2023/09/28 06:33:46;;;;;;;20.05;14.40;;;15.70;99.90;;;;;;5076289;28;20030;-79
2023/09/28 06:36:12;;;;;;;21.33;14.30;;;15.90;99.90;;;;;;5076404;28;20020;-79
2023/09/28 06:38:38;;;;;;;20.90;13.82;;;16.10;99.90;;;;;;5072389;28;20124;-79
2023/09/28 06:41:04;;;;;;;20.15;13.57;;;16.30;99.90;;;;;;5078008;28;20108;-79
2023/09/28 06:43:29;;;;;;;15.95;12.65;;;16.50;99.90;;;;;;5083410;28;20028;-79
2023/09/28 06:45:58;;;;;;;16.05;11.57;;;16.70;99.90;;;;;;5079155;28;20066;-79
2023/09/28 06:48:24;;;;;;;18.13;12.65;;;16.90;99.90;;;;;;5082864;28;20103;-79
2023/09/28 06:50:50;;;;;;;20.88;14.00;;;17.10;99.90;;;;;;5077976;28;20040;-79
2023/09/28 06:53:16;;;;;;;20.80;13.45;;;17.30;99.90;;;;;;5078089;28;20508;-80
2023/09/28 06:55:44;;;;;;;17.38;12.80;;;17.50;99.90;;;;;;5078190;28;20080;-79
2023/09/28 06:58:13;;;;;;;16.10;12.25;;;17.70;99.90;;;;;;5078114;28;20021;-80
2023/09/28 07:00:39;;;;;;;14.68;11.68;;;17.80;99.90;;;;;;5087685;28;20389;-80
2023/09/28 07:03:05;;;;;;;19.10;12.32;;;18.00;99.90;;;;;;5092039;28;20043;-80
2023/09/28 07:05:33;;;;;;;14.95;10.52;;;18.20;99.90;;;;;;5090260;28;20477;-79
2023/09/28 07:08:00;;;;;;;17.40;11.40;;;18.30;99.90;;;;;;5072700;28;20059;-79
2023/09/28 07:10:26;;;;;;;14.82;11.65;;;18.50;99.90;;;;;;5072344;28;20017;-80
2023/09/28 07:12:52;;;;;;;14.10;10.43;;;18.70;99.90;;;;;;5072248;28;20013;-80
2023/09/28 07:15:18;;;;;;;13.70;11.15;;;18.90;99.90;;;;;;5072495;28;20370;-79
2023/09/28 07:17:44;;;;;;;11.07;9.38;;;19.00;99.90;;;;;;5066550;28;20021;-80
2023/09/28 07:20:13;;;;;;;12.45;8.93;;;19.20;99.90;;;;;;5074236;28;20025;-80
2023/09/28 07:22:40;;;;;;;15.57;10.20;;;19.30;99.90;;;;;;5070607;28;20123;-80
2023/09/28 07:25:06;;;;;;;10.80;9.07;;;19.50;99.90;;;;;;5075812;28;20017;-79
2023/09/28 07:27:32;;;;;;;11.07;8.82;;;19.60;99.90;;;;;;5089526;28;20027;-80
2023/09/28 07:29:59;;;;;;;9.75;8.75;;;19.80;99.90;;;;;;5080733;28;20024;-80
2023/09/28 07:32:26;;;;;;;11.07;8.50;;;19.90;99.90;;;;;;5089495;28;20016;-80
2023/09/28 07:34:52;;;;;;;10.23;8.35;;;20.10;99.90;;;;;;5086903;28;20022;-80
2023/09/28 07:37:18;;;;;;;21.38;8.88;;;20.10;99.90;;;;;;5081468;28;20021;-80
2023/09/28 07:39:44;;;;;;;12.57;8.13;;;20.30;99.90;;;;;;5088146;28;20036;-77
2023/09/28 07:42:10;;;;;;;10.75;8.80;;;20.30;99.90;;;;;;5082570;28;20371;-77
2023/09/28 07:44:35;;;;;;;11.77;8.27;;;20.50;99.90;;;;;;5090852;28;20038;-77
2023/09/28 07:47:01;;;;;;;13.07;8.07;;;20.50;99.90;;;;;;5092368;28;20035;-77
2023/09/28 07:49:27;;;;;;;12.95;8.80;;;20.60;99.90;;;;;;5090172;28;20009;-78
2023/09/28 07:51:55;;;;;;;10.85;8.82;;;20.60;99.90;;;;;;5092390;28;20061;-78
2023/09/28 07:54:21;;;;;;;13.05;8.35;;;20.80;99.90;;;;;;5089664;28;20016;-78
2023/09/28 07:56:47;;;;;;;11.10;8.45;;;20.80;99.90;;;;;;5092084;28;20028;-79
2023/09/28 07:59:13;;;;;;;10.73;8.52;;;20.80;99.90;;;;;;5078427;28;20358;-78
2023/09/28 08:01:40;;;;;;;11.40;9.00;;;20.90;99.90;;;;;;5084779;28;20016;-78
2023/09/28 08:04:06;;;;;;;11.07;8.02;;;21.00;99.90;;;;;;5090671;28;20111;-78
2023/09/28 08:06:32;;;;;;;10.30;8.60;;;21.20;99.90;;;;;;5091784;28;20109;-78
2023/09/28 08:08:58;;;;;;;12.27;8.80;;;21.20;97.20;;;;;;5092435;28;20485;-78
2023/09/28 08:11:24;;;;;;;9.77;8.30;;;21.40;95.10;;;;;;5091293;28;20107;-78
2023/09/28 08:13:50;;;;;;;17.27;7.78;;;21.50;93.90;;;;;;5090021;28;20058;-78
2023/09/28 08:16:16;;;;;;;10.02;7.50;;;21.60;90.80;;;;;;5090858;28;20027;-78
2023/09/28 08:18:42;;;;;;;8.10;7.10;;;21.60;86.00;;;;;;5089820;28;20465;-78
2023/09/28 08:21:08;;;;;;;9.48;7.93;;;21.80;86.00;;;;;;5090610;28;20026;-78
2023/09/28 08:23:34;;;;;;;12.65;11.40;;;21.90;87.20;;;;;;5089015;28;20028;-79
2023/09/28 08:25:59;;;;;;;9.82;7.40;;;22.00;82.20;;;;;;5091931;28;20091;-79
2023/09/28 08:28:25;;;;;;;9.15;7.30;;;22.10;80.30;;;;;;5089319;28;20482;-79
2023/09/28 08:30:54;;;;;;;11.60;8.02;;;22.20;79.40;;;;;;5091892;28;20097;-79
2023/09/28 08:33:19;;;;;;;10.82;7.55;;;22.20;78.00;;;;;;5089744;28;20020;-79
2023/09/28 08:35:49;;;;;;;10.45;6.82;;;22.40;79.90;;;;;;5091368;28;20024;-79
2023/09/28 08:38:15;;;;;;;10.95;6.97;;;22.50;73.30;;;;;;5092018;28;20097;-79
2023/09/28 08:40:42;;;;;;;9.32;7.07;;;22.60;71.10;;;;;;5094535;28;20024;-78
2023/09/28 08:43:11;;;;;;;11.65;7.32;;;22.80;73.50;;;;;;5094035;28;20035;-79
2023/09/28 08:45:40;;;;;;;14.43;8.68;;;22.80;74.00;;;;;;5095737;28;20020;-79
2023/09/28 08:48:11;;;;;;;13.60;7.20;;;22.90;73.30;;;;;;5093329;28;20020;-79
2023/09/28 08:50:38;;;;;;;9.98;7.60;;;22.90;71.20;;;;;;5093688;28;20024;-79
2023/09/28 08:53:05;;;;;;;8.68;6.72;;;23.10;71.30;;;;;;5094915;28;20039;-79
2023/09/28 08:55:34;;;;;;;12.77;6.95;;;23.10;73.40;;;;;;5093290;28;20077;-79
2023/09/28 08:58:02;;;;;;;10.38;7.60;;;23.20;74.60;;;;;;5062583;28;20028;-78
2023/09/28 09:00:29;;;;;;;10.35;6.95;;;23.20;71.20;;;;;;5075862;28;20055;-79
2023/09/28 09:02:58;;;;;;;10.25;6.95;;;23.30;72.10;;;;;;5073311;28;20138;-79
2023/09/28 09:05:29;;;;;;;10.77;6.38;;;23.30;69.40;;;;;;5074360;28;20024;-79
2023/09/28 09:07:55;;;;;;;8.52;6.18;;;23.40;70.00;;;;;;5074888;28;20051;-79
2023/09/28 09:10:22;;;;;;;8.00;7.10;;;23.40;69.60;;;;;;5075575;28;20021;-79
2023/09/28 09:12:48;;;;;;;9.18;5.32;;;23.50;70.00;;;;;;5085109;28;20028;-78
2023/09/28 09:15:14;;;;;;;7.72;5.40;;;23.60;70.90;;;;;;5091998;28;20012;-79
2023/09/28 09:17:40;;;;;;;36.17;33.92;;;23.60;65.10;;;;;;5094412;28;20099;-80
2023/09/28 09:20:08;;;;;;;5.95;4.90;;;23.70;66.10;;;;;;5092336;28;20024;-79
2023/09/28 09:22:34;;;;;;;8.93;4.30;;;23.70;59.30;;;;;;5078447;28;20116;-79
2023/09/28 09:25:00;;;;;;;7.60;4.78;;;23.60;57.40;;;;;;5057263;28;20115;-78
2023/09/28 09:27:32;;;;;;;6.35;4.75;;;23.60;56.30;;;;;;5063377;28;20021;-80
2023/09/28 09:29:59;;;;;;;;;;;23.60;56.80;;;;;;5074070;28;20023;-80
2023/09/28 09:32:25;;;;;;;8.88;5.15;;;23.70;59.70;;;;;;5075088;28;19904;-80
2023/09/28 09:34:52;;;;;;;9.88;7.15;;;23.80;60.70;;;;;;5059914;28;20047;-79
2023/09/28 09:37:19;;;;;;;9.77;4.88;;;23.90;61.10;;;;;;5073710;28;20398;-79
2023/09/28 09:39:45;;;;;;;6.03;5.40;;;24.00;59.40;;;;;;5073742;28;20032;-80
2023/09/28 09:42:11;;;;;;;8.85;5.03;;;24.00;57.00;;;;;;5073870;28;20027;-80
2023/09/28 09:44:37;;;;;;;10.25;5.45;;;24.10;57.60;;;;;;5067594;28;20032;-79
2023/09/28 09:47:02;;;;;;;12.30;5.55;;;24.10;55.10;;;;;;5071840;28;20400;-79
2023/09/28 09:49:28;;;;;;;6.70;4.70;;;24.20;56.10;;;;;;5074871;28;20040;-78
2023/09/28 09:51:55;;;;;;;8.50;5.65;;;24.20;56.80;;;;;;5074591;28;20482;-81
2023/09/28 09:54:21;;;;;;;6.68;4.45;;;24.10;55.10;;;;;;5074785;28;20035;-80
2023/09/28 09:56:49;;;;;;;6.53;4.45;;;24.20;55.00;;;;;;5074819;28;20024;-80
2023/09/28 09:59:20;;;;;;;12.27;4.72;;;24.30;56.30;;;;;;5074064;28;20481;-81
2023/09/28 10:01:49;;;;;;;9.30;5.32;;;24.30;53.10;;;;;;5074333;28;20532;-80
2023/09/28 10:04:16;;;;;;;8.55;5.03;;;24.40;54.80;;;;;;5076097;28;20021;-80
2023/09/28 10:06:56;;;;;;;11.68;5.45;;;24.50;53.20;;;;;;5074673;28;20025;-80
2023/09/28 10:09:22;;;;;;;7.28;5.45;;;24.50;52.60;;;;;;5078295;28;20027;-80
2023/09/28 10:11:52;;;;;;;8.82;4.40;;;24.50;51.90;;;;;;5076489;28;20085;-80
2023/09/28 10:14:20;;;;;;;8.52;4.43;;;24.50;50.90;;;;;;5073767;28;20024;-80
2023/09/28 10:16:49;;;;;;;9.93;4.72;;;24.50;53.00;;;;;;5076569;28;20146;-79
2023/09/28 10:19:19;;;;;;;6.03;4.10;;;24.60;51.00;;;;;;5072843;28;20371;-80
2023/09/28 10:21:45;;;;;;;6.95;4.50;;;24.60;52.20;;;;;;5072822;28;20394;-80
2023/09/28 10:24:15;;;;;;;6.90;4.30;;;24.70;51.40;;;;;;5072324;28;20043;-80
2023/09/28 10:27:08;;;;;;;8.45;4.47;;;24.70;50.20;;;;;;5072745;28;20467;-81
2023/09/28 10:29:34;;;;;;;6.97;3.72;;;24.80;48.60;;;;;;5071224;28;20082;-81
2023/09/28 10:32:02;;;;;;;5.97;3.67;;;24.80;48.20;;;;;;5068843;28;20033;-80
2023/09/28 10:34:29;;;;;;;6.10;3.90;;;24.80;46.30;;;;;;5071538;28;20039;-80
2023/09/28 10:37:11;;;;;;;6.63;3.25;;;24.80;46.70;;;;;;5069161;28;20386;-79
2023/09/28 10:39:41;;;;;;;5.15;3.28;;;24.80;47.30;;;;;;5073295;28;20048;-80
2023/09/28 10:42:12;;;;;;;4.43;2.88;;;24.90;46.30;;;;;;5066969;28;20024;-81
2023/09/28 10:44:49;;;;;;;5.25;3.72;;;24.80;44.60;;;;;;5072765;28;20025;-81
2023/09/28 10:47:15;;;;;;;5.25;3.28;;;24.80;44.00;;;;;;5072706;28;20098;-80
2023/09/28 10:49:41;;;;;;;7.75;3.78;;;24.90;44.90;;;;;;5073618;28;20044;-80
2023/09/28 10:52:09;;;;;;;6.00;3.70;;;24.90;46.50;;;;;;5065161;28;20033;-80
2023/09/28 10:54:35;;;;;;;5.32;4.05;;;24.90;45.80;;;;;;5067497;28;20020;-82
2023/09/28 10:57:04;;;;;;;7.38;3.97;;;24.90;44.70;;;;;;5072457;28;20036;-80
2023/09/28 10:59:30;;;;;;;7.95;4.47;;;24.90;47.10;;;;;;5067331;28;20017;-81
2023/09/28 11:02:01;;;;;;;6.00;3.80;;;25.00;48.40;;;;;;5053928;28;20021;-79
2023/09/28 11:04:28;;;;;;;6.90;4.60;;;25.00;48.00;;;;;;5069719;28;20025;-80
2023/09/28 11:06:55;;;;;;;6.88;3.78;;;25.00;49.20;;;;;;5072900;28;20270;-80
2023/09/28 11:09:21;;;;;;;6.13;4.00;;;25.00;49.30;;;;;;5070040;28;20012;-80
2023/09/28 11:11:49;;;;;;;8.32;5.88;;;25.00;47.60;;;;;;5072693;28;20050;-80
2023/09/28 11:14:14;;;;;;;5.88;4.35;;;25.00;49.30;;;;;;5078547;28;20094;-80
2023/09/28 11:16:42;;;;;;;7.38;4.45;;;25.00;48.40;;;;;;5075978;28;20535;-80
2023/09/28 11:19:11;;;;;;;7.13;3.60;;;25.00;49.70;;;;;;5077518;28;20023;-81
2023/09/28 11:21:37;;;;;;;8.40;3.72;;;24.90;47.00;;;;;;5073953;28;20074;-80
2023/09/28 11:24:03;;;;;;;22.70;18.38;;;25.00;46.70;;;;;;5077566;28;20059;-80
2023/09/28 11:26:30;;;;;;;5.20;4.43;;;25.00;50.00;;;;;;5075112;28;20021;-81
2023/09/28 11:28:58;;;;;;;7.18;3.85;;;25.00;48.60;;;;;;5077277;28;20409;-81
2023/09/28 11:31:25;;;;;;;5.63;3.28;;;25.00;49.20;;;;;;5074568;28;20024;-81
2023/09/28 11:33:50;;;;;;;8.57;4.20;;;25.10;50.10;;;;;;5076413;28;20466;-81
2023/09/28 11:36:21;;;;;;;5.72;4.40;;;25.10;48.10;;;;;;5074785;28;20031;-80
2023/09/28 11:38:48;;;;;;;65.07;25.05;;;25.10;48.30;;;;;;5076697;28;20048;-80
2023/09/28 11:41:14;;;;;;;6.68;3.97;;;25.20;47.90;;;;;;5074560;28;20024;-80
2023/09/28 11:43:58;;;;;;;6.53;4.00;;;25.20;47.80;;;;;;5072215;28;20024;-80
2023/09/28 11:46:27;;;;;;;9.45;4.15;;;25.20;49.50;;;;;;5073874;28;20021;-81
2023/09/28 11:49:02;;;;;;;7.40;4.28;;;25.10;49.90;;;;;;5081467;28;20470;-81
2023/09/28 11:51:30;;;;;;;6.70;4.10;;;25.20;51.10;;;;;;5084519;28;20024;-81
2023/09/28 11:53:56;;;;;;;7.70;3.95;;;25.20;50.90;;;;;;5083078;28;20020;-81
2023/09/28 11:56:23;;;;;;;10.50;4.85;;;25.20;52.80;;;;;;5084066;28;20024;-81
2023/09/28 11:58:48;;;;;;;8.63;4.78;;;25.20;49.50;;;;;;5078582;28;20050;-81
2023/09/28 12:01:14;;;;;;;8.15;5.53;;;25.30;49.40;;;;;;5065942;28;20122;-81
2023/09/28 12:03:40;;;;;;;9.27;5.32;;;25.20;47.20;;;;;;5084906;28;20111;-81
2023/09/28 12:06:06;;;;;;;9.65;4.97;;;25.20;46.50;;;;;;5079074;28;20027;-80
2023/09/28 12:08:31;;;;;;;5.63;4.70;;;25.20;48.10;;;;;;5078580;28;20033;-81
2023/09/28 12:10:57;;;;;;;6.20;3.97;;;25.20;49.70;;;;;;5090385;28;20020;-81
2023/09/28 12:13:24;;;;;;;8.35;4.32;;;25.20;47.90;;;;;;5090512;28;20032;-81
2023/09/28 12:15:50;;;;;;;8.45;5.07;;;25.20;49.40;;;;;;5089695;28;20051;-81
2023/09/28 12:18:16;;;;;;;9.15;4.60;;;25.20;52.30;;;;;;5090726;28;20032;-81
2023/09/28 12:20:42;;;;;;;6.38;4.68;;;25.20;51.30;;;;;;5090290;28;20355;-81
2023/09/28 12:23:08;;;;;;;6.10;3.95;;;25.20;50.20;;;;;;5079781;28;20036;-80
2023/09/28 12:25:34;;;;;;;6.82;4.63;;;25.20;47.60;;;;;;5086854;28;20016;-81
2023/09/28 12:28:02;;;;;;;6.88;4.15;;;25.20;46.30;;;;;;5089134;28;20020;-81
2023/09/28 12:30:29;;;;;;;7.72;4.38;;;25.10;46.00;;;;;;5087053;28;20016;-81
2023/09/28 12:32:57;;;;;;;5.75;4.50;;;25.10;48.10;;;;;;5088343;28;20020;-81